カラカス の空港の天気 - METARとTAF

シモン・ボリバー空港(バルガス) ( SVMI / CCS ) - ベネズエラ バルガス州、Maiquetia (カラカス近郊)
飛行場実況気象(Metar)
観測時間07/16 23:00 VET (07/17 03:00 UTC)
風向・風速東 2m/s
視程-
天気現象
少しの雲 雲底高度 490m
気温25℃
湿度89%
気圧1009hPa
METARSVMI 170300Z 09003KT FEW016 25/23 Q1009
過去の天気等 Google飛行場航空写真 Wunderground天気予報

過去48時間のMETAR

飛行場予報(TAF)
発表時間: 7/17 00:00 VET (7/17 04:00 UTC)
予報対象時間: 17日2時 VET ~ 18日2時 VET
風向・風速静穏
視程10km以上
全天の4割程度の雲 雲底高度 490m
17日2時 VET ~ 17日6時 VET に一時的に
視程10km以上
なし
TAF SVMI 170400Z 1706/1806 00000KT 9999 SCT016 TX33/18ZTN25/07Z
TEMPO 1706/1710 CAVOK